createdAt,value
2022-08-26T00:01:35.069Z,21.89
2022-08-26T00:05:36.904Z,21.88
2022-08-26T00:09:40.095Z,21.48
2022-08-26T00:13:42.234Z,21.43
2022-08-26T00:17:51.923Z,21.61
2022-08-26T00:21:53.445Z,21.66
2022-08-26T00:25:54.957Z,21.64
2022-08-26T00:29:58.328Z,21.02
2022-08-26T00:33:59.809Z,21.05
2022-08-26T00:38:01.869Z,21.35
2022-08-26T00:42:03.972Z,21.45
2022-08-26T00:46:13.622Z,21.12
2022-08-26T00:50:21.783Z,20.91
2022-08-26T00:54:27.323Z,21.33
2022-08-26T00:58:31.468Z,21.37
2022-08-26T01:02:32.978Z,21.34
2022-08-26T01:06:34.861Z,21.51
2022-08-26T01:10:37.190Z,21.60
2022-08-26T01:14:40.688Z,21.69
2022-08-26T01:18:43.357Z,21.72
2022-08-26T01:22:56.903Z,21.79
2022-08-26T01:27:05.335Z,21.80
2022-08-26T01:31:11.362Z,21.67
2022-08-26T01:35:16.384Z,21.68
2022-08-26T01:39:20.645Z,21.74
2022-08-26T01:43:27.174Z,21.67
2022-08-26T01:47:31.394Z,21.66
2022-08-26T01:51:36.974Z,21.67
2022-08-26T01:55:41.685Z,21.63
2022-08-26T01:59:43.255Z,21.59
2022-08-26T02:04:10.615Z,21.51
2022-08-26T02:08:13.166Z,21.46
2022-08-26T02:12:18.244Z,21.34
2022-08-26T02:16:24.345Z,21.30
2022-08-26T02:20:26.584Z,21.22
2022-08-26T02:24:46.144Z,21.20
2022-08-26T02:29:07.551Z,21.16
2022-08-26T02:33:09.469Z,21.18
2022-08-26T02:37:11.491Z,21.06
2022-08-26T02:41:13.258Z,21.06
2022-08-26T02:45:16.794Z,20.89
2022-08-26T02:49:26.079Z,20.87
2022-08-26T02:53:31.695Z,20.88
2022-08-26T02:57:34.586Z,20.56
2022-08-26T03:01:36.393Z,20.65
2022-08-26T03:05:38.000Z,20.72
2022-08-26T03:09:41.683Z,20.83
2022-08-26T03:13:43.218Z,20.31
2022-08-26T03:17:49.115Z,20.45
2022-08-26T03:21:53.647Z,20.47
2022-08-26T03:25:59.615Z,20.70
2022-08-26T03:30:19.986Z,20.67
2022-08-26T03:34:21.545Z,20.26
2022-08-26T03:38:27.135Z,20.12
2022-08-26T03:42:29.011Z,20.50
2022-08-26T03:46:35.321Z,20.61
2022-08-26T03:50:37.309Z,20.59
2022-08-26T03:54:40.540Z,20.61
2022-08-26T03:58:45.024Z,20.56
2022-08-26T04:02:50.979Z,20.53
2022-08-26T04:06:58.953Z,20.53
2022-08-26T04:11:01.240Z,20.29
2022-08-26T04:15:05.962Z,20.42
2022-08-26T04:19:08.766Z,20.48
2022-08-26T04:23:10.270Z,20.49
2022-08-26T04:27:12.080Z,20.45
2022-08-26T04:31:15.510Z,20.29
2022-08-26T04:35:17.231Z,20.24
2022-08-26T04:39:20.179Z,20.30
2022-08-26T04:43:21.710Z,20.46
2022-08-26T04:47:23.154Z,20.41
2022-08-26T04:51:27.974Z,20.54
2022-08-26T04:55:39.671Z,20.37
2022-08-26T04:59:44.410Z,20.59
2022-08-26T05:03:46.416Z,20.34
2022-08-26T05:07:47.931Z,20.23
2022-08-26T05:11:52.106Z,20.34
2022-08-26T05:15:54.603Z,20.58
2022-08-26T05:20:00.617Z,20.60
2022-08-26T05:24:02.210Z,20.48
2022-08-26T05:28:04.529Z,20.31
2022-08-26T05:32:07.464Z,20.55
2022-08-26T05:36:15.233Z,20.60
2022-08-26T05:40:17.107Z,20.57
2022-08-26T05:44:21.077Z,20.76
2022-08-26T05:48:24.444Z,21.05
2022-08-26T05:52:26.194Z,21.31
2022-08-26T05:56:30.139Z,21.35
2022-08-26T06:00:31.614Z,21.48
2022-08-26T06:04:33.113Z,21.61
2022-08-26T06:08:35.091Z,21.55
2022-08-26T06:12:37.432Z,21.48
2022-08-26T06:16:41.286Z,21.72
2022-08-26T06:20:57.934Z,21.81
2022-08-26T06:25:18.394Z,21.75
2022-08-26T06:29:25.341Z,21.73
2022-08-26T06:33:28.749Z,22.02
2022-08-26T06:37:30.188Z,22.16
2022-08-26T06:41:33.521Z,22.15
2022-08-26T06:45:34.954Z,22.23
2022-08-26T06:49:37.163Z,22.45
2022-08-26T06:53:41.278Z,22.61
2022-08-26T06:57:42.753Z,22.66
2022-08-26T07:01:47.124Z,22.55
2022-08-26T07:05:51.276Z,23.09
2022-08-26T07:09:55.227Z,23.33
2022-08-26T07:13:58.831Z,23.42
2022-08-26T07:18:00.292Z,23.64
2022-08-26T07:22:04.694Z,23.76
2022-08-26T07:26:08.290Z,24.07
2022-08-26T07:30:10.383Z,24.14
2022-08-26T07:34:17.130Z,23.92
2022-08-26T07:38:19.389Z,24.05
2022-08-26T07:42:21.171Z,24.04
2022-08-26T07:46:27.528Z,23.94
2022-08-26T07:50:49.294Z,24.28
2022-08-26T07:54:52.091Z,24.62
2022-08-26T07:58:54.028Z,24.77
2022-08-26T08:02:55.687Z,24.87
2022-08-26T08:06:58.635Z,24.93
2022-08-26T08:11:00.449Z,25.20
2022-08-26T08:15:01.896Z,25.39
2022-08-26T08:19:03.788Z,25.40
2022-08-26T08:23:05.563Z,25.54
2022-08-26T08:27:08.815Z,25.96
2022-08-26T08:31:21.620Z,25.82
2022-08-26T08:35:34.674Z,26.18
2022-08-26T08:39:37.118Z,26.11
2022-08-26T08:43:44.668Z,26.39
2022-08-26T08:47:54.597Z,26.89
2022-08-26T08:52:02.364Z,26.85
2022-08-26T08:56:31.899Z,27.00
2022-08-26T09:00:46.436Z,26.92
2022-08-26T09:05:00.812Z,26.85
2022-08-26T09:09:03.890Z,26.96
2022-08-26T09:13:09.989Z,26.98
2022-08-26T09:17:53.330Z,27.11
2022-08-26T09:21:56.915Z,27.64
2022-08-26T09:26:14.031Z,27.93
2022-08-26T09:30:35.318Z,27.70
2022-08-26T09:34:51.603Z,27.83
2022-08-26T09:38:54.047Z,28.06
2022-08-26T09:43:10.712Z,28.33
2022-08-26T09:47:12.416Z,28.15
2022-08-26T09:51:23.079Z,27.99
2022-08-26T09:55:24.591Z,28.71
2022-08-26T09:59:30.539Z,28.48
2022-08-26T10:03:35.346Z,28.53
2022-08-26T10:07:48.368Z,28.88
2022-08-26T10:11:56.180Z,28.52
2022-08-26T10:16:03.723Z,27.93
2022-08-26T10:20:28.555Z,28.08
2022-08-26T10:24:58.041Z,27.85
2022-08-26T10:29:09.937Z,28.03
2022-08-26T10:33:15.341Z,27.92
2022-08-26T10:37:22.732Z,28.28
2022-08-26T10:41:27.765Z,28.47
2022-08-26T10:45:35.239Z,28.55
2022-08-26T10:49:38.254Z,28.32
2022-08-26T10:53:55.724Z,28.76
2022-08-26T10:58:04.756Z,29.14
2022-08-26T11:02:15.395Z,29.85
2022-08-26T11:06:19.860Z,29.30
2022-08-26T11:10:21.318Z,28.73
2022-08-26T11:14:28.360Z,28.65
2022-08-26T11:18:40.573Z,28.61
2022-08-26T11:22:47.913Z,28.44
2022-08-26T11:26:56.388Z,28.74
2022-08-26T11:30:58.487Z,28.78
2022-08-26T11:35:19.365Z,28.46
2022-08-26T11:39:33.374Z,28.41
2022-08-26T11:43:40.516Z,27.61
2022-08-26T11:47:42.100Z,27.02
2022-08-26T11:51:47.743Z,26.89
2022-08-26T11:55:53.250Z,26.10
2022-08-26T11:59:56.471Z,25.39
2022-08-26T12:03:59.995Z,25.18
2022-08-26T12:08:12.063Z,24.80
2022-08-26T12:12:24.581Z,24.54
2022-08-26T12:16:38.419Z,24.20
2022-08-26T12:20:54.180Z,24.21
2022-08-26T12:24:59.645Z,24.30
2022-08-26T12:29:09.409Z,24.33
2022-08-26T12:33:22.833Z,24.20
2022-08-26T12:37:27.074Z,23.87
2022-08-26T12:41:44.964Z,24.00
2022-08-26T12:45:59.879Z,23.23
2022-08-26T12:50:04.256Z,23.30
2022-08-26T12:54:07.204Z,22.11
2022-08-26T12:58:31.724Z,22.27
2022-08-26T13:02:39.781Z,22.00
2022-08-26T13:06:41.294Z,21.87
2022-08-26T13:10:46.588Z,21.66
2022-08-26T13:14:48.050Z,21.61
2022-08-26T13:18:53.021Z,21.37
2022-08-26T13:22:59.136Z,20.97
2022-08-26T13:27:02.089Z,20.60
2022-08-26T13:31:04.836Z,20.66
2022-08-26T13:35:07.613Z,20.60
2022-08-26T13:39:09.134Z,20.43
2022-08-26T13:43:11.517Z,20.62
2022-08-26T13:47:13.376Z,20.62
2022-08-26T13:51:16.469Z,20.81
2022-08-26T13:55:18.057Z,20.85
2022-08-26T13:59:19.644Z,20.71
2022-08-26T14:03:21.548Z,19.82
2022-08-26T14:07:23.720Z,20.01
2022-08-26T14:11:25.353Z,20.00
2022-08-26T14:15:27.791Z,19.92
2022-08-26T14:19:31.494Z,20.08
2022-08-26T14:23:33.228Z,19.52
2022-08-26T14:27:34.705Z,19.04
2022-08-26T14:31:37.789Z,18.62
2022-08-26T14:35:39.975Z,18.79
2022-08-26T14:39:50.196Z,19.20
2022-08-26T14:43:57.984Z,19.28
2022-08-26T14:47:59.799Z,19.26
2022-08-26T14:52:01.611Z,19.23
2022-08-26T14:56:04.034Z,19.30
2022-08-26T15:00:08.037Z,19.43
2022-08-26T15:04:09.545Z,19.16
2022-08-26T15:08:11.502Z,19.08
2022-08-26T15:12:12.988Z,19.07
2022-08-26T15:16:15.215Z,19.26
2022-08-26T15:20:16.831Z,19.26
2022-08-26T15:24:22.006Z,19.55
2022-08-26T15:28:23.627Z,19.72
2022-08-26T15:32:25.113Z,19.73
2022-08-26T15:36:28.910Z,19.43
2022-08-26T15:40:30.440Z,19.61
2022-08-26T15:44:34.006Z,19.77
2022-08-26T15:48:35.483Z,19.77
2022-08-26T15:52:40.921Z,19.55
2022-08-26T15:56:43.460Z,19.54
2022-08-26T16:00:45.221Z,19.77
2022-08-26T16:04:46.829Z,19.79
2022-08-26T16:08:50.010Z,19.72
2022-08-26T16:12:51.505Z,19.72
2022-08-26T16:16:53.412Z,19.75
2022-08-26T16:21:12.787Z,19.60
2022-08-26T16:25:15.577Z,19.58
2022-08-26T16:29:17.958Z,19.78
2022-08-26T16:33:29.201Z,19.73
2022-08-26T16:37:31.340Z,19.75
2022-08-26T16:41:33.035Z,19.89
2022-08-26T16:45:38.081Z,19.99
2022-08-26T16:49:43.823Z,19.84
2022-08-26T16:53:45.975Z,19.60
2022-08-26T16:57:48.307Z,19.92
2022-08-26T17:01:50.151Z,19.79
2022-08-26T17:05:51.671Z,19.88
2022-08-26T17:09:53.188Z,19.96
2022-08-26T17:13:54.772Z,19.79
2022-08-26T17:17:56.814Z,19.97
2022-08-26T17:21:58.375Z,19.72
2022-08-26T17:25:59.900Z,19.89
2022-08-26T17:30:01.363Z,19.73
2022-08-26T17:34:03.491Z,19.74
2022-08-26T17:38:04.999Z,19.84
2022-08-26T17:42:06.566Z,19.67
2022-08-26T17:46:10.060Z,19.70
2022-08-26T17:50:15.761Z,20.17
2022-08-26T17:54:17.230Z,19.87
2022-08-26T17:58:23.217Z,20.20
2022-08-26T18:02:25.265Z,19.93
2022-08-26T18:06:26.900Z,20.18
2022-08-26T18:10:28.454Z,20.11
2022-08-26T18:14:35.302Z,19.88
2022-08-26T18:18:38.308Z,19.98
2022-08-26T18:22:40.154Z,20.14
2022-08-26T18:26:48.016Z,20.23
2022-08-26T18:30:49.493Z,19.83
2022-08-26T18:34:51.102Z,19.91
2022-08-26T18:38:53.103Z,19.52
2022-08-26T18:42:54.597Z,19.37
2022-08-26T18:46:56.103Z,19.41
2022-08-26T18:50:59.140Z,19.61
2022-08-26T18:55:01.960Z,19.53
2022-08-26T18:59:05.444Z,19.74
2022-08-26T19:03:15.589Z,19.53
2022-08-26T19:07:20.829Z,19.80
2022-08-26T19:11:31.556Z,19.70
2022-08-26T19:15:41.173Z,19.61
2022-08-26T19:19:42.742Z,19.48
2022-08-26T19:23:47.025Z,19.61
2022-08-26T19:27:48.564Z,19.68
2022-08-26T19:31:50.235Z,19.68
2022-08-26T19:35:51.816Z,19.92
2022-08-26T19:39:53.427Z,19.92
2022-08-26T19:43:55.564Z,19.74
2022-08-26T19:48:00.188Z,19.68
2022-08-26T19:52:03.013Z,19.64
2022-08-26T19:56:04.549Z,19.58
2022-08-26T20:00:10.957Z,19.46
2022-08-26T20:04:12.829Z,19.93
2022-08-26T20:08:16.847Z,20.03
2022-08-26T20:12:24.818Z,20.25
2022-08-26T20:16:26.384Z,20.59
2022-08-26T20:20:46.438Z,20.50
2022-08-26T20:24:48.496Z,20.41
2022-08-26T20:28:51.021Z,20.68
2022-08-26T20:32:52.890Z,20.61
2022-08-26T20:36:54.630Z,20.75
2022-08-26T20:40:56.373Z,20.57
2022-08-26T20:44:57.978Z,20.92
2022-08-26T20:48:59.516Z,20.61
2022-08-26T20:53:02.239Z,20.45
2022-08-26T20:57:03.884Z,20.38
2022-08-26T21:01:08.016Z,20.54
2022-08-26T21:05:09.946Z,20.59
2022-08-26T21:09:13.170Z,20.54
2022-08-26T21:13:19.966Z,20.55
2022-08-26T21:17:21.538Z,20.55
2022-08-26T21:21:25.129Z,20.41
2022-08-26T21:25:27.026Z,20.38
2022-08-26T21:29:28.587Z,19.99
2022-08-26T21:33:30.078Z,20.35
2022-08-26T21:37:31.588Z,20.66
2022-08-26T21:41:33.115Z,20.19
2022-08-26T21:45:40.006Z,20.62
2022-08-26T21:49:41.575Z,20.52
2022-08-26T21:53:43.351Z,20.56
2022-08-26T21:57:45.172Z,20.02
2022-08-26T22:01:47.155Z,20.06
2022-08-26T22:05:52.115Z,19.92
2022-08-26T22:09:53.594Z,19.72
2022-08-26T22:13:56.960Z,19.42
2022-08-26T22:17:59.484Z,19.45
2022-08-26T22:22:02.286Z,19.36
2022-08-26T22:26:06.434Z,19.40
2022-08-26T22:30:08.184Z,19.30
2022-08-26T22:34:17.064Z,19.40
2022-08-26T22:38:19.698Z,19.53
2022-08-26T22:42:21.221Z,19.53
2022-08-26T22:46:26.070Z,19.56
2022-08-26T22:50:27.575Z,19.62
2022-08-26T22:54:29.072Z,19.70
2022-08-26T22:58:31.074Z,19.71
2022-08-26T23:02:32.588Z,19.66
2022-08-26T23:06:36.396Z,19.49
2022-08-26T23:10:40.571Z,19.70
2022-08-26T23:14:43.863Z,19.94
2022-08-26T23:18:45.383Z,19.92
2022-08-26T23:22:46.953Z,19.88
2022-08-26T23:26:48.702Z,19.81
2022-08-26T23:30:50.430Z,20.10
2022-08-26T23:34:58.960Z,19.82
2022-08-26T23:39:00.857Z,20.02
2022-08-26T23:43:06.543Z,19.78
2022-08-26T23:47:08.367Z,19.78
2022-08-26T23:51:34.266Z,19.74
2022-08-26T23:55:37.239Z,19.98
2022-08-26T23:59:39.052Z,20.06
